Mon Louis, Alabama
Current Conditions -  °F | °C
As of 1:53 PM on Friday 19 Dec 2014 (Local Time) from KBFM Reporting Station
Overcast Overcast  
Wind Chill: 55°   Ceiling: 1800
Heat Index: 55°   Visibility: 10mi
Dew Point: 45°   Wind: 8mph
Humidity: 69%   Direction: 50°NE
Pressure: 30.1"   Gusts: NA
Location:  30.4032°N, 88.1801°W
Report Text: KBFM 191953Z 05007KT 10SM BKN018 OVC032 13/07 A3010 RMK AO2 SLP192 T01280072
Loading
Personal Weather Stations






























Interactive Weather Map New forecast layout! Learn more

10-Day Weather Forecast

Advertisements
Track Severe Weather on mobile